x

East Dellwood (46207) Wave Buoy

8:00am - Tue 27th Jan 2015 All times are PST. -8 hours from GMT.

  • Sig Wave height 10.5ft
  • Peak Period 8s
  • Wind
    18mph, 25mph gusts
  • Sea Temp 49°f
  • Air Temp 47°f
  • Sea Pressure 1016.5mb
  • East Dellwood
  • East Dellwood

More Historic Weather Station data

Upgrade to MSW Pro to gain access to the past 30 days of data for over 8000 Wavebouys and Weather Stations around the globe.

Join Pro

Comparision Forecast

View Surf forecast
   
Tue 01/27 8:00am 10.5ft 8s 18 25 mph 1016.5mb 49f 47f
7:00am 10.5ft 9s 16 20 mph 1015.9mb 49f 47f
6:00am 10ft 10s 18 25 mph 1015.3mb 49f 47f
5:00am 10ft 8s 20 27 mph 1014.8mb 49f 47f
4:00am 10.5ft 8s 20 25 mph 1014mb 49f 47f
3:00am 11ft 8s 22 29 mph 1013.2mb 50f 47f
2:00am 10.5ft 8s 20 27 mph 1012.1mb 50f 47f
1:00am 11ft 7s 22 31 mph 1010.7mb 50f 47f
12:00am 9.5ft 8s 25 31 mph 1009.1mb 49f 47f
Mon 01/26 11:00pm 9.5ft 14s 27 34 mph 1007.7mb 50f 48f
10:00pm 9ft 8s 25 31 mph 1006.4mb 50f 48f
9:00pm 9ft 7s 25 29 mph 1004.9mb 49f 47f
8:00pm 9ft 7s 22 27 mph 1003.5mb 50f 48f
7:00pm 9.5ft 7s 25 29 mph 1002.2mb 50f 50f
6:00pm 8.5ft 10s 25 29 mph 1002mb 50f 50f
5:00pm 9ft 10s 22 27 mph 1002.1mb 50f 50f
4:00pm 8.5ft 10s 25 29 mph 1002mb 50f 50f
3:00pm 9ft 11s 25 29 mph 1002.2mb 50f 50f
2:00pm 8.5ft 12s 22 27 mph 1002.6mb 50f 50f
1:00pm 9ft 11s 22 27 mph 1003mb 49f 49f
12:00pm 9.5ft 11s 25 31 mph 1003.4mb 49f 49f
11:00am 9ft 10s 27 31 mph 1003.9mb 49f 49f
10:00am 9ft 10s 20 25 mph 1004.1mb 49f 49f
9:00am 9.5ft 10s 22 27 mph 1004.3mb 49f 49f
8:00am 9ft 14s 20 25 mph 1004.7mb 49f 49f
7:00am 9ft 12s 25 29 mph 1005.5mb 49f 49f
6:00am 9ft 12s 22 27 mph 1006.3mb 50f 49f
5:00am 9ft 10s 20 25 mph 1006.7mb 50f 49f
4:00am 9ft 11s 20 25 mph 1007.5mb 50f 49f
3:00am 9.5ft 11s 22 27 mph 1008.4mb 50f 50f
2:00am 10ft 11s 20 25 mph 1008.6mb 50f 50f
1:00am 10ft 14s 22 27 mph 1009.2mb 50f 50f
12:00am 11ft 11s 22 29 mph 1009.5mb 50f 49f
Sun 01/25 11:00pm 11.5ft 11s 25 31 mph 1009.7mb 50f 50f
10:00pm 11.5ft 12s 25 31 mph 1010.1mb 50f 50f
9:00pm 12ft 11s 25 31 mph 1010.1mb 50f 50f
8:00pm 12ft 12s 27 31 mph 1010.2mb 51f 50f
7:00pm 12.5ft 10s 27 31 mph 1010.5mb 51f 50f
6:00pm 12ft 10s 27 31 mph 1010.4mb 51f 50f
5:00pm 11.5ft 12s 22 27 mph 1011.2mb 51f 50f
4:00pm 10.5ft 10s 20 25 mph 1011.3mb 51f 50f
3:00pm 11ft 11s 18 25 mph 1011.4mb 51f 51f
2:00pm 11ft 12s 18 22 mph 1012.4mb 51f 49f
1:00pm 12ft 12s 13 18 mph 1013.2mb 51f 49f
12:00pm 13ft 12s 11 16 mph 1014.1mb 51f 49f
11:00am 13ft 11s 9 13 mph 1014.7mb 51f 49f
10:00am 13.5ft 12s 9 13 mph 1014.8mb 51f 49f
9:00am 13.5ft 11s 7 11 mph 1015mb 51f 49f
8:00am 15ft 12s 9 16 mph 1014.4mb 51f 49f
7:00am 15ft 14s 11 16 mph 1014.5mb 51f 49f
6:00am  -   -  7
mph
1014.7mb 51f 50f
5:00am 14.5ft 13s 4 9 mph 1015.2mb 51f 50f
4:00am 13.5ft 13s 7 9 mph 1015.6mb 51f 50f
3:00am 13ft 12s 4 9 mph 1015.9mb 51f 51f
2:00am 13.5ft 10s 7 9 mph 1015.6mb 51f 51f
1:00am 14ft 12s 9 11 mph 1015.1mb 50f 51f
12:00am 13ft 12s 9 13 mph 1015mb 50f 51f
Sat 01/24 11:00pm 13ft 10s 11 18 mph 1014.4mb 49f 51f
10:00pm 12.5ft 10s 16 22 mph 1014.2mb 49f 51f
9:00pm 14ft 11s 16 20 mph 1012.9mb 49f 51f
8:00pm 14ft 9s 22 27 mph 1011.9mb 49f 52f
7:00pm 14ft 9s 22 29 mph 1010.7mb 50f 52f
6:00pm 14ft 8s 27 34 mph 1009.5mb 50f 52f
5:00pm 14ft 10s 29 34 mph 1008.3mb 49f 52f
4:00pm 13.5ft 10s 29 34 mph 1008.2mb 49f 52f
3:00pm 13.5ft 11s 27 34 mph 1008.7mb 49f 52f
2:00pm 13ft 11s 29 34 mph 1009mb 49f 52f
1:00pm 12.5ft 12s 31 38 mph 1009.4mb 49f 52f
12:00pm 14.5ft 12s 31 40 mph 1009.9mb 49f 52f
11:00am 14ft 14s 31
mph
1010.6mb 50f 51f
10:00am 12.5ft 13s 27 34 mph 1011.3mb 50f 52f
9:00am 13ft 14s 27 34 mph 1012mb 50f 51f
8:00am 13ft 14s 27 31 mph 1012.9mb 50f 51f
6:00am 13ft 14s 22 29 mph 1015.3mb 50f 50f
5:00am 12ft 14s 22 27 mph 1016.5mb 50f 49f
4:00am 12ft 14s 20 25 mph 1018.2mb 50f 49f
3:00am 11.5ft 12s 18 22 mph 1019.4mb 50f 50f
2:00am 13ft 15s 11 16 mph 1020.1mb 50f 50f
1:00am 12.5ft 14s 13 16 mph 1020.9mb 50f 50f
12:00am 13ft 15s 11 13 mph 1021.2mb 50f 50f
Fri 01/23 11:00pm 12.5ft 11s 7 9 mph 1020.8mb 50f 50f
10:00pm 15ft 13s 4 9 mph 1020.4mb 50f 50f
9:00pm 14ft 16s 9 11 mph 1019.6mb 50f 51f
8:00pm 14.5ft 14s 9 13 mph 1019.2mb 50f 51f
7:00pm 13ft 14s 11 16 mph 1018.2mb 50f 51f
6:00pm 12.5ft 17s 11 16 mph 1017.6mb 50f 51f